Time;durP1;ratioP1;P1;durP2;ratioP2;P2;SDS_P1;SDS_P2;PMS_P1;PMS_P2;Temp;Humidity;BMP_temperature;BMP_pressure;BME280_temperature;BME280_humidity;BME280_pressure;Samples;Min_cycle;Max_cycle;Signal;HPM_P1;HPM_P2
2023/04/10 00:00:03;;;;;;;11.20;10.00;;;;;;;8.93;73.16;102027.34;4990971;28;20081;-78
2023/04/10 00:02:30;;;;;;;10.40;9.32;;;;;;;8.91;73.22;102023.09;5000336;28;20023;-77
2023/04/10 00:04:56;;;;;;;12.10;9.70;;;;;;;8.87;73.14;102005.78;4986447;28;20027;-77
2023/04/10 00:07:21;;;;;;;12.80;9.13;;;;;;;8.85;73.36;102008.50;4975193;28;20072;-77
2023/04/10 00:09:47;;;;;;;11.43;9.23;;;;;;;8.83;72.90;101994.59;4989956;28;20065;-77
2023/04/10 00:12:16;;;;;;;11.07;9.63;;;;;;;8.85;73.05;101994.53;4987911;28;20518;-77
2023/04/10 00:14:42;;;;;;;10.88;9.77;;;;;;;8.85;72.85;101981.41;4988518;28;20050;-78
2023/04/10 00:17:08;;;;;;;10.65;9.55;;;;;;;8.84;72.90;101980.56;4989529;28;20051;-78
2023/04/10 00:19:34;;;;;;;10.30;9.20;;;;;;;8.84;72.57;101982.31;4981166;28;20022;-77
2023/04/10 00:22:05;;;;;;;10.95;9.55;;;;;;;8.83;72.79;101980.63;4971693;28;20085;-77
2023/04/10 00:24:30;;;;;;;12.50;9.35;;;;;;;8.81;72.54;101974.59;4971352;28;20102;-77
2023/04/10 00:26:56;;;;;;;10.27;9.27;;;;;;;8.82;73.18;101984.19;5005477;28;20121;-78
2023/04/10 00:29:22;;;;;;;10.68;9.57;;;;;;;8.78;72.54;101979.03;5003881;28;20026;-77
2023/04/10 00:31:47;;;;;;;10.82;9.52;;;;;;;8.78;73.05;101976.41;4989254;28;20030;-77
2023/04/10 00:34:17;;;;;;;10.18;9.18;;;;;;;8.75;72.82;101973.09;4990211;28;20050;-77
2023/04/10 00:36:46;;;;;;;9.80;8.90;;;;;;;8.74;72.69;101966.16;4976166;28;20031;-77
2023/04/10 00:39:11;;;;;;;9.98;9.00;;;;;;;8.73;72.51;101965.31;5003145;28;20502;-77
2023/04/10 00:41:37;;;;;;;10.30;9.30;;;;;;;8.71;72.90;101959.28;5004766;28;20081;-77
2023/04/10 00:44:02;;;;;;;10.93;9.43;;;;;;;8.69;72.76;101966.38;4989647;28;20054;-76
2023/04/10 00:46:29;;;;;;;11.38;9.27;;;;;;;8.68;72.98;101958.59;4988602;28;20046;-76
2023/04/10 00:48:55;;;;;;;10.95;9.13;;;;;;;8.67;72.91;101955.09;4991724;28;20117;-76
2023/04/10 00:51:21;;;;;;;10.38;9.35;;;;;;;8.65;73.01;101959.59;5008259;28;20113;-76
2023/04/10 00:53:51;;;;;;;10.02;9.02;;;;;;;8.61;72.84;101947.53;4999801;28;20023;-76
2023/04/10 00:56:18;;;;;;;12.30;9.10;;;;;;;8.61;72.50;101954.56;4973964;28;20027;-77
2023/04/10 00:58:44;;;;;;;9.90;8.90;;;;;;;8.58;73.15;101949.47;4981521;28;20046;-77
2023/04/10 01:01:10;;;;;;;10.00;9.05;;;;;;;8.57;73.22;101960.88;4991718;28;20038;-76
2023/04/10 01:03:38;;;;;;;9.70;8.70;;;;;;;8.54;72.56;101959.25;4993630;28;20033;-77
2023/04/10 01:06:15;;;;;;;10.23;9.10;;;;;;;8.52;72.72;101952.38;4991247;28;20109;-77
2023/04/10 01:08:59;;;;;;;9.68;8.70;;;;;;;8.54;72.83;101948.75;4993917;28;20026;-77
2023/04/10 01:11:51;;;;;;;10.07;9.07;;;;;;;8.48;72.69;101946.44;5003966;28;20485;-77
2023/04/10 01:14:37;;;;;;;9.35;8.23;;;;;;;8.49;72.66;101948.13;4992575;28;20033;-77
2023/04/10 01:17:26;;;;;;;10.13;8.98;;;;;;;8.49;72.53;101942.88;4992917;28;20030;-77
2023/04/10 01:20:11;;;;;;;9.98;8.98;;;;;;;8.48;72.58;101936.78;4974138;28;20058;-77
2023/04/10 01:23:04;;;;;;;11.27;9.20;;;;;;;8.48;72.45;101935.94;4989242;28;20030;-77
2023/04/10 01:25:58;;;;;;;10.02;8.70;;;;;;;8.43;72.87;101937.94;5006707;28;20030;-77
2023/04/10 01:28:51;;;;;;;11.15;9.10;;;;;;;8.45;72.50;101930.84;4984365;28;20488;-78
2023/04/10 01:31:24;;;;;;;9.20;8.30;;;;;;;8.38;72.70;101932.03;4991888;28;20058;-79
2023/04/10 01:33:56;;;;;;;10.25;8.98;;;;;;;8.37;73.12;101932.97;4991732;28;20041;-77
2023/04/10 01:36:27;;;;;;;10.38;8.40;;;;;;;8.33;73.21;101934.00;5008340;28;20033;-77
2023/04/10 01:38:55;;;;;;;9.30;8.40;;;;;;;8.27;73.01;101927.28;4992342;28;20112;-77
2023/04/10 01:41:22;;;;;;;9.90;8.90;;;;;;;8.26;73.24;101935.22;4991947;28;20514;-77
2023/04/10 01:43:50;;;;;;;9.90;8.85;;;;;;;8.25;73.55;101926.50;4991232;28;20049;-77
2023/04/10 01:46:18;;;;;;;10.20;9.07;;;;;;;8.25;73.62;101920.41;4992247;28;20030;-77
2023/04/10 01:48:45;;;;;;;10.00;8.98;;;;;;;8.22;73.36;101915.31;4991389;28;20041;-77
2023/04/10 01:51:12;;;;;;;10.30;8.75;;;;;;;8.18;73.69;101915.44;4991579;28;20030;-77
2023/04/10 01:53:39;;;;;;;9.43;8.48;;;;;;;8.16;73.70;101916.44;4992019;28;20022;-77
2023/04/10 01:56:07;;;;;;;9.80;8.75;;;;;;;8.15;73.61;101912.13;4991673;28;20022;-77
2023/04/10 01:58:34;;;;;;;9.50;8.60;;;;;;;8.15;73.90;101907.72;4991938;28;20045;-77
2023/04/10 02:01:06;;;;;;;9.90;8.90;;;;;;;8.13;74.69;101896.47;4990612;28;20034;-77
2023/04/10 02:03:31;;;;;;;9.57;8.60;;;;;;;8.13;74.91;101899.09;4991322;28;20031;-77
2023/04/10 02:06:27;;;;;;;9.30;8.40;;;;;;;8.12;74.53;101886.06;4992363;28;20080;-77
2023/04/10 02:09:22;;;;;;;9.75;8.85;;;;;;;8.10;74.07;101883.50;5006466;28;20046;-77
2023/04/10 02:12:03;;;;;;;9.68;8.68;;;;;;;8.08;74.22;101880.13;4985757;28;20385;-77
2023/04/10 02:14:31;;;;;;;9.50;8.60;;;;;;;8.06;74.87;101874.09;4973346;28;20031;-77
2023/04/10 02:16:58;;;;;;;12.02;9.07;;;;;;;8.05;74.49;101880.25;4987242;28;20030;-77
2023/04/10 02:19:26;;;;;;;10.00;8.93;;;;;;;8.04;74.45;101878.56;4990602;28;20038;-77
2023/04/10 02:21:52;;;;;;;9.57;8.68;;;;;;;8.04;74.17;101873.31;4992875;28;20022;-77
2023/04/10 02:24:19;;;;;;;10.10;8.55;;;;;;;8.01;74.77;101870.84;4991523;28;20031;-77
2023/04/10 02:26:47;;;;;;;10.25;9.25;;;;;;;8.01;74.61;101870.84;4991373;28;20029;-77
2023/04/10 02:29:13;;;;;;;10.05;9.00;;;;;;;7.98;74.63;101868.34;4989380;28;20447;-77
2023/04/10 02:31:40;;;;;;;10.10;8.50;;;;;;;7.97;74.90;101869.25;4991465;28;20174;-77
2023/04/10 02:34:06;;;;;;;9.50;8.50;;;;;;;7.96;74.93;101874.56;4991574;28;20030;-77
2023/04/10 02:36:37;;;;;;;9.13;8.23;;;;;;;7.96;74.75;101877.19;4992442;28;20518;-76
2023/04/10 02:39:06;;;;;;;9.80;8.75;;;;;;;7.92;74.42;101866.00;4991522;28;20034;-76
2023/04/10 02:41:32;;;;;;;9.25;8.35;;;;;;;7.89;74.75;101858.28;4990483;28;20042;-76
2023/04/10 02:43:57;;;;;;;9.27;8.38;;;;;;;7.91;75.13;101861.69;5003542;28;20389;-76
2023/04/10 02:46:23;;;;;;;9.82;8.88;;;;;;;7.88;74.72;101864.44;4988991;28;20038;-76
2023/04/10 02:48:48;;;;;;;10.23;9.23;;;;;;;7.88;74.72;101869.69;4992234;28;20032;-76
2023/04/10 02:51:14;;;;;;;9.00;8.20;;;;;;;7.89;75.21;101871.38;4991856;28;20022;-76
2023/04/10 02:53:41;;;;;;;10.13;9.02;;;;;;;7.89;76.03;101878.41;4990581;28;20355;-76
2023/04/10 02:56:06;;;;;;;9.20;8.30;;;;;;;7.88;76.14;101867.06;4990569;28;20136;-76
2023/04/10 02:58:32;;;;;;;9.02;8.23;;;;;;;7.87;75.10;101865.38;4990957;28;20078;-77
2023/04/10 03:00:58;;;;;;;9.05;8.20;;;;;;;7.84;75.68;101865.53;4988346;28;20034;-77
2023/04/10 03:03:24;;;;;;;9.15;8.15;;;;;;;7.82;75.54;101864.75;4992170;28;20034;-77
2023/04/10 03:05:50;;;;;;;9.63;8.63;;;;;;;7.82;75.54;101862.13;4991622;28;20041;-77
2023/04/10 03:08:16;;;;;;;9.32;8.43;;;;;;;7.80;75.07;101858.72;4992314;28;20027;-77
2023/04/10 03:10:44;;;;;;;9.35;8.45;;;;;;;7.83;75.25;101861.19;4990790;28;20026;-77
2023/04/10 03:13:09;;;;;;;8.80;7.90;;;;;;;7.81;75.14;101868.28;4990880;28;20030;-77
2023/04/10 03:15:37;;;;;;;9.20;8.30;;;;;;;7.76;75.85;101867.66;4990965;28;20371;-77
2023/04/10 03:18:05;;;;;;;10.07;8.15;;;;;;;7.77;75.03;101869.34;4988746;28;20041;-77
2023/04/10 03:20:32;;;;;;;9.20;8.30;;;;;;;7.72;75.12;101871.31;4980749;28;20033;-77
2023/04/10 03:22:58;;;;;;;10.00;8.55;;;;;;;7.75;74.96;101876.41;4971943;28;20031;-77
2023/04/10 03:25:24;;;;;;;9.70;8.32;;;;;;;7.70;74.92;101867.94;4972531;28;20019;-77
2023/04/10 03:27:50;;;;;;;9.15;8.25;;;;;;;7.73;74.99;101867.78;4971846;28;20034;-77
2023/04/10 03:30:16;;;;;;;9.27;8.38;;;;;;;7.74;75.12;101869.47;4987791;28;20435;-77
2023/04/10 03:32:42;;;;;;;9.68;8.68;;;;;;;7.72;75.17;101874.78;4998712;28;20034;-77
2023/04/10 03:35:09;;;;;;;9.57;8.68;;;;;;;7.69;75.19;101863.63;4988331;28;20030;-77
2023/04/10 03:37:35;;;;;;;10.10;8.90;;;;;;;7.69;74.92;101859.22;4984210;28;20472;-77
2023/04/10 03:40:03;;;;;;;10.00;8.95;;;;;;;7.67;75.10;101854.97;4984082;28;20045;-76
2023/04/10 03:42:28;;;;;;;9.98;8.90;;;;;;;7.65;75.05;101848.97;4990102;28;20078;-77
2023/04/10 03:44:53;;;;;;;10.05;9.05;;;;;;;7.64;75.05;101847.25;4989795;28;20076;-77
2023/04/10 03:47:19;;;;;;;9.85;8.65;;;;;;;7.62;75.21;101847.34;4990234;28;20034;-77
2023/04/10 03:49:44;;;;;;;10.15;9.15;;;;;;;7.57;75.53;101841.44;4990439;28;20030;-78
2023/04/10 03:52:09;;;;;;;12.68;9.25;;;;;;;7.57;75.73;101840.56;4989198;28;20050;-78
2023/04/10 03:54:35;;;;;;;10.23;9.05;;;;;;;7.53;75.66;101840.72;4984689;28;20062;-78
2023/04/10 03:57:00;;;;;;;10.05;9.05;;;;;;;7.51;76.00;101841.72;4989561;28;20026;-78
2023/04/10 03:59:26;;;;;;;10.50;9.40;;;;;;;7.49;76.11;101838.31;4991244;28;20026;-78
2023/04/10 04:01:52;;;;;;;9.68;8.55;;;;;;;7.47;75.96;101840.16;4990311;28;20030;-78
2023/04/10 04:04:19;;;;;;;10.57;8.50;;;;;;;7.45;76.07;101827.13;4990157;28;20057;-76
2023/04/10 04:06:44;;;;;;;10.07;9.07;;;;;;;7.41;76.55;101828.19;4988926;28;20037;-76
2023/04/10 04:09:10;;;;;;;11.23;9.65;;;;;;;7.40;76.02;101829.09;4988516;28;20039;-76
2023/04/10 04:11:37;;;;;;;10.48;9.38;;;;;;;7.37;76.20;101823.16;4981380;28;20667;-77
2023/04/10 04:14:02;;;;;;;9.73;8.73;;;;;;;7.36;75.95;101822.31;4985971;28;20026;-76
2023/04/10 04:16:28;;;;;;;12.40;10.07;;;;;;;7.34;76.15;101821.53;4989337;28;20026;-76
2023/04/10 04:18:53;;;;;;;10.63;9.50;;;;;;;7.30;76.40;101817.34;4990493;28;20022;-76
2023/04/10 04:21:20;;;;;;;11.25;10.07;;;;;;;7.31;76.58;101815.59;4989627;28;20034;-79
2023/04/10 04:23:45;;;;;;;10.40;9.40;;;;;;;7.27;76.18;101814.88;4992558;28;20084;-77
2023/04/10 04:26:11;;;;;;;10.55;9.40;;;;;;;7.23;76.69;101810.69;4994545;28;20022;-77
2023/04/10 04:28:36;;;;;;;11.35;10.20;;;;;;;7.25;76.58;101814.09;4993379;28;20088;-77
2023/04/10 04:31:05;;;;;;;11.07;10.00;;;;;;;7.23;76.52;101810.69;4994530;28;20064;-78
2023/04/10 04:33:30;;;;;;;11.73;9.88;;;;;;;7.23;76.72;101805.47;4992610;28;20097;-78
2023/04/10 04:35:56;;;;;;;11.98;10.80;;;;;;;7.23;76.20;101806.31;4992625;28;20121;-78
2023/04/10 04:38:22;;;;;;;12.93;10.77;;;;;;;7.22;76.79;101803.78;4992929;28;20843;-78
2023/04/10 04:40:48;;;;;;;11.07;9.90;;;;;;;7.23;76.82;101802.84;4992883;28;20100;-78
2023/04/10 04:43:13;;;;;;;11.15;10.05;;;;;;;7.23;76.92;101808.09;4993454;28;20061;-78
2023/04/10 04:45:39;;;;;;;11.55;10.43;;;;;;;7.23;77.21;101805.47;4982805;28;20035;-78
2023/04/10 04:48:05;;;;;;;11.23;10.05;;;;;;;7.22;77.08;101803.78;4972623;28;20110;-78
2023/04/10 04:50:31;;;;;;;12.13;10.90;;;;;;;7.25;76.76;101803.63;4991372;28;20419;-78
2023/04/10 04:52:59;;;;;;;11.15;9.95;;;;;;;7.19;77.48;101809.97;4992587;28;20031;-78
2023/04/10 04:55:24;;;;;;;11.73;10.52;;;;;;;7.22;77.14;101802.00;5007506;28;20065;-78
2023/04/10 04:57:50;;;;;;;12.07;10.82;;;;;;;7.22;77.03;101803.78;4991844;28;20069;-78
2023/04/10 05:00:15;;;;;;;12.15;10.90;;;;;;;7.21;76.97;101802.91;4991911;28;20034;-78
2023/04/10 05:02:41;;;;;;;14.10;11.43;;;;;;;7.20;77.02;101800.34;4992704;28;20026;-78
2023/04/10 05:05:06;;;;;;;12.73;11.40;;;;;;;7.19;76.80;101798.63;4989579;28;20061;-78
2023/04/10 05:07:32;;;;;;;12.52;11.23;;;;;;;7.20;76.95;101787.25;4982760;28;20391;-78
2023/04/10 05:09:58;;;;;;;12.85;11.02;;;;;;;7.20;76.60;101784.63;4993398;28;20049;-78
2023/04/10 05:12:24;;;;;;;12.88;10.40;;;;;;;7.21;76.44;101781.13;4992692;28;20069;-78
2023/04/10 05:14:49;;;;;;;11.68;10.57;;;;;;;7.23;76.65;101774.06;4993675;28;20022;-78
2023/04/10 05:17:15;;;;;;;11.13;10.02;;;;;;;7.22;76.46;101777.59;4993881;28;20026;-75
2023/04/10 05:19:41;;;;;;;11.48;10.38;;;;;;;7.25;76.38;101774.84;4992753;28;20113;-76
2023/04/10 05:22:07;;;;;;;11.45;10.35;;;;;;;7.27;75.86;101775.63;4993299;28;20033;-77
2023/04/10 05:24:33;;;;;;;11.55;10.35;;;;;;;7.29;75.88;101771.16;4989077;28;20022;-76
2023/04/10 05:26:59;;;;;;;11.02;9.82;;;;;;;7.32;75.73;101772.78;4986436;28;20391;-78
2023/04/10 05:29:25;;;;;;;14.85;10.30;;;;;;;7.34;75.50;101770.94;4992880;28;20033;-77
2023/04/10 05:31:51;;;;;;;10.82;9.70;;;;;;;7.37;75.12;101771.66;4993404;28;20034;-77
2023/04/10 05:34:16;;;;;;;10.48;9.48;;;;;;;7.40;75.16;101771.50;4991022;28;20125;-76
2023/04/10 05:36:42;;;;;;;10.63;9.63;;;;;;;7.43;74.97;101771.38;4992008;28;20109;-76
2023/04/10 05:39:07;;;;;;;10.55;9.55;;;;;;;7.48;74.90;101779.00;5007163;28;20024;-76
2023/04/10 05:41:37;;;;;;;10.30;9.30;;;;;;;7.50;74.51;101778.00;4990511;28;20387;-76
2023/04/10 05:44:03;;;;;;;10.82;9.82;;;;;;;7.52;74.32;101776.16;5007279;28;20031;-76
2023/04/10 05:46:28;;;;;;;11.10;9.82;;;;;;;7.55;74.26;101776.03;5007696;28;20026;-76
2023/04/10 05:48:54;;;;;;;10.27;9.27;;;;;;;7.60;73.89;101777.56;4992285;28;20526;-76
2023/04/10 05:51:20;;;;;;;10.65;9.65;;;;;;;7.64;74.21;101779.16;4990980;28;20380;-76
2023/04/10 05:53:45;;;;;;;10.85;9.75;;;;;;;7.68;73.51;101778.09;4992209;28;20046;-76
2023/04/10 05:56:10;;;;;;;10.63;9.52;;;;;;;7.75;73.58;101782.13;4991261;28;20565;-76
2023/04/10 05:58:36;;;;;;;10.88;9.70;;;;;;;7.78;73.32;101781.97;4991744;28;20553;-76
2023/04/10 06:01:05;;;;;;;10.90;9.63;;;;;;;7.83;72.92;101793.09;4990661;28;20100;-76
2023/04/10 06:03:30;;;;;;;11.15;9.60;;;;;;;7.88;72.83;101785.00;4992802;28;20449;-76
2023/04/10 06:05:56;;;;;;;10.70;9.65;;;;;;;7.95;72.25;101783.78;4991867;28;20105;-77
2023/04/10 06:08:22;;;;;;;10.60;9.27;;;;;;;8.00;72.48;101787.03;4991154;28;20196;-77
2023/04/10 06:10:47;;;;;;;9.88;8.88;;;;;;;8.06;71.71;101782.34;4992034;28;20112;-77
2023/04/10 06:13:13;;;;;;;10.30;9.20;;;;;;;8.10;71.66;101788.31;4992173;28;20014;-76
2023/04/10 06:15:40;;;;;;;10.15;9.15;;;;;;;8.17;71.56;101787.94;5006578;28;20022;-76
2023/04/10 06:18:07;;;;;;;10.10;9.10;;;;;;;8.23;71.09;101788.53;4991458;28;20030;-76
2023/04/10 06:20:32;;;;;;;10.15;9.18;;;;;;;8.30;70.63;101782.91;4991728;28;20553;-76
2023/04/10 06:22:58;;;;;;;9.63;8.68;;;;;;;8.36;69.70;101774.78;4992179;28;20113;-76
2023/04/10 06:25:23;;;;;;;10.63;9.52;;;;;;;8.41;70.12;101771.94;4992294;28;20022;-76
2023/04/10 06:27:49;;;;;;;9.93;8.93;;;;;;;8.47;69.48;101766.38;4989637;28;20118;-76
2023/04/10 06:30:15;;;;;;;9.65;8.75;;;;;;;8.52;69.82;101748.66;4989894;28;20102;-76
2023/04/10 06:32:40;;;;;;;9.50;8.60;;;;;;;8.54;69.30;101746.78;4989925;28;20023;-76
2023/04/10 06:35:06;;;;;;;9.80;8.80;;;;;;;8.61;69.03;101752.56;4988560;28;20026;-76
2023/04/10 06:37:31;;;;;;;10.57;9.57;;;;;;;8.69;68.64;101745.16;4992007;28;20006;-76
2023/04/10 06:40:10;;;;;;;10.10;9.10;;;;;;;8.73;69.07;101738.81;4991297;28;20038;-76
2023/04/10 06:42:40;;;;;;;9.20;8.30;;;;;;;8.76;67.64;101726.38;4999529;28;20079;-76
2023/04/10 06:45:07;;;;;;;9.30;8.40;;;;;;;8.85;68.00;101724.22;5009063;28;20022;-76
2023/04/10 06:47:35;;;;;;;9.70;8.70;;;;;;;8.92;67.86;101725.59;4993617;28;20027;-76
2023/04/10 06:50:01;;;;;;;9.45;8.55;;;;;;;8.96;67.49;101722.72;4991935;28;20023;-75
2023/04/10 06:52:27;;;;;;;9.73;8.80;;;;;;;9.02;67.19;101717.13;4987823;28;20026;-75
2023/04/10 06:54:53;;;;;;;9.00;8.10;;;;;;;9.08;66.55;101713.34;4975555;28;20027;-75
2023/04/10 06:57:19;;;;;;;9.00;8.10;;;;;;;9.13;67.18;101713.94;4974091;28;20033;-75
2023/04/10 06:59:45;;;;;;;8.93;8.10;;;;;;;9.20;65.75;101710.03;4992044;28;20483;-75
2023/04/10 07:02:10;;;;;;;9.10;7.95;;;;;;;9.24;66.07;101706.34;4991328;28;20029;-75
2023/04/10 07:04:36;;;;;;;9.20;8.30;;;;;;;9.29;65.50;101698.22;4991273;28;20550;-75
2023/04/10 07:07:01;;;;;;;13.07;8.60;;;;;;;9.30;64.98;101695.50;4991171;28;20387;-75
2023/04/10 07:09:29;;;;;;;8.95;8.05;;;;;;;9.32;65.27;101693.63;4992169;28;20594;-76
2023/04/10 07:11:55;;;;;;;8.50;7.70;;;;;;;9.41;64.49;101685.25;5005945;28;20126;-76
2023/04/10 07:14:21;;;;;;;9.73;8.32;;;;;;;9.46;64.60;101686.75;4991041;28;20109;-75
2023/04/10 07:16:48;;;;;;;10.80;8.00;;;;;;;9.51;64.23;101682.09;4991495;28;20026;-76
2023/04/10 07:19:14;;;;;;;8.75;7.88;;;;;;;9.55;64.89;101688.88;4990800;28;20504;-77
2023/04/10 07:21:41;;;;;;;9.63;8.63;;;;;;;9.58;64.57;101679.03;4990423;28;20106;-78
2023/04/10 07:24:06;;;;;;;8.85;7.95;;;;;;;9.67;64.67;101668.03;4991335;28;20506;-75
2023/04/10 07:26:32;;;;;;;9.18;8.02;;;;;;;9.76;63.78;101666.63;4988970;28;20049;-75
2023/04/10 07:28:57;;;;;;;8.52;7.60;;;;;;;9.78;63.36;101664.78;4991081;28;20045;-75
2023/04/10 07:31:22;;;;;;;8.60;7.80;;;;;;;9.84;63.06;101661.78;4990695;28;20025;-75
2023/04/10 07:33:48;;;;;;;8.63;7.10;;;;;;;9.94;63.35;101656.84;5005926;28;20479;-78
2023/04/10 07:36:13;;;;;;;8.20;7.40;;;;;;;10.04;62.39;101661.47;5009137;28;20482;-78
2023/04/10 07:38:39;;;;;;;8.40;7.55;;;;;;;10.16;61.99;101654.66;4992974;28;20033;-77
2023/04/10 07:41:05;;;;;;;8.40;7.57;;;;;;;10.28;61.65;101653.09;4997114;28;20077;-75
2023/04/10 07:43:30;;;;;;;8.13;7.32;;;;;;;10.37;61.90;101642.00;4990734;28;20068;-77
2023/04/10 07:45:57;;;;;;;8.05;7.25;;;;;;;10.50;60.54;101637.72;5011074;28;20034;-76
2023/04/10 07:48:23;;;;;;;8.50;7.68;;;;;;;10.62;61.01;101629.06;5002486;28;20550;-77
2023/04/10 07:50:48;;;;;;;8.70;7.88;;;;;;;10.83;60.16;101618.16;4991090;28;20068;-76
2023/04/10 07:53:13;;;;;;;8.23;7.53;;;;;;;11.01;59.95;101624.03;4990201;28;20439;-77
2023/04/10 07:55:42;;;;;;;8.93;7.70;;;;;;;11.25;59.18;101615.44;4987451;28;20065;-76
2023/04/10 07:58:08;;;;;;;8.05;7.20;;;;;;;11.53;59.00;101613.63;4974748;28;20085;-76
2023/04/10 08:00:33;;;;;;;10.00;7.50;;;;;;;11.72;58.23;101608.00;4977890;28;20022;-76
2023/04/10 08:03:01;;;;;;;8.52;7.70;;;;;;;11.95;57.09;101598.56;4989242;28;20026;-76
2023/04/10 08:05:26;;;;;;;9.82;7.53;;;;;;;12.01;56.69;101608.69;4987999;28;20030;-75
2023/04/10 08:07:52;;;;;;;8.43;7.63;;;;;;;12.09;56.58;101595.84;4988827;28;20364;-77
2023/04/10 08:10:18;;;;;;;8.02;7.22;;;;;;;12.17;56.42;101593.53;4989593;28;20026;-78
2023/04/10 08:12:43;;;;;;;7.72;7.03;;;;;;;12.20;57.07;101601.22;4988847;28;20084;-77
2023/04/10 08:15:09;;;;;;;9.13;7.47;;;;;;;12.23;56.28;101595.75;4985788;28;20034;-77
2023/04/10 08:17:34;;;;;;;8.90;7.38;;;;;;;12.12;56.51;101585.94;5014060;28;20036;-77
2023/04/10 08:20:05;;;;;;;8.55;7.63;;;;;;;12.11;56.91;101591.31;4986338;28;20045;-77
2023/04/10 08:22:30;;;;;;;8.20;7.40;;;;;;;12.13;56.56;101578.88;5003623;28;20062;-75
2023/04/10 08:24:57;;;;;;;7.53;6.82;;;;;;;12.13;57.10;101582.34;4990066;28;20056;-75
2023/04/10 08:27:22;;;;;;;8.23;7.43;;;;;;;12.14;56.78;101586.66;4989410;28;20041;-77
2023/04/10 08:29:47;;;;;;;7.93;7.13;;;;;;;12.19;57.13;101581.91;5002759;28;20026;-75
2023/04/10 08:32:13;;;;;;;7.85;7.15;;;;;;;12.35;57.61;101586.97;4988322;28;20121;-76
2023/04/10 08:34:38;;;;;;;8.15;7.35;;;;;;;12.44;56.86;101575.78;4988887;28;20494;-76
2023/04/10 08:37:08;;;;;;;8.27;7.47;;;;;;;12.50;56.61;101570.06;4988707;28;20113;-76
2023/04/10 08:39:37;;;;;;;8.05;7.35;;;;;;;12.62;56.45;101567.50;4989499;28;20026;-76
2023/04/10 08:42:05;;;;;;;8.27;7.43;;;;;;;12.73;56.22;101567.59;4988816;28;20141;-75
2023/04/10 08:44:31;;;;;;;8.23;7.35;;;;;;;12.69;54.95;101564.31;4988548;28;20026;-75
2023/04/10 08:46:58;;;;;;;8.57;7.32;;;;;;;12.64;55.93;101563.81;5002176;28;20030;-75
2023/04/10 08:49:30;;;;;;;9.32;8.25;;;;;;;12.59;56.48;101563.28;5009507;28;20105;-75
2023/04/10 08:51:57;;;;;;;13.43;7.23;;;;;;;12.62;56.11;101565.72;4990321;28;20499;-76
2023/04/10 08:54:34;;;;;;;7.97;7.28;;;;;;;12.65;56.74;101567.28;4989855;28;20028;-75
2023/04/10 08:57:05;;;;;;;8.75;7.47;;;;;;;12.68;56.92;101567.06;4988992;28;20037;-75
2023/04/10 08:59:32;;;;;;;8.32;7.53;;;;;;;12.62;56.93;101563.06;4989414;28;20487;-75
2023/04/10 09:01:58;;;;;;;8.40;7.60;;;;;;;12.69;56.81;101560.84;4990689;28;20029;-75
2023/04/10 09:04:24;;;;;;;8.98;7.47;;;;;;;12.78;57.53;101565.47;5023598;28;20038;-76
2023/04/10 09:06:51;;;;;;;8.52;7.72;;;;;;;12.81;56.82;101555.53;5008243;28;20049;-76
2023/04/10 09:09:17;;;;;;;8.48;7.68;;;;;;;12.98;56.72;101562.25;4989813;28;20030;-75
2023/04/10 09:11:55;;;;;;;8.25;7.45;;;;;;;13.03;56.82;101557.47;5007514;28;20089;-76
2023/04/10 09:14:23;;;;;;;7.60;6.90;;;;;;;13.03;56.76;101552.19;4991645;28;20030;-76
2023/04/10 09:16:49;;;;;;;8.52;7.63;;;;;;;13.10;55.58;101555.22;4992389;28;20043;-76
2023/04/10 09:19:29;;;;;;;8.18;7.25;;;;;;;13.19;56.17;101544.00;4990687;28;20027;-77
2023/04/10 09:21:56;;;;;;;8.13;7.32;;;;;;;13.29;55.33;101546.81;4992366;28;20041;-77
2023/04/10 09:24:22;;;;;;;7.75;7.05;;;;;;;13.32;55.27;101546.59;4992412;28;20534;-77
2023/04/10 09:26:48;;;;;;;7.72;7.00;;;;;;;13.37;55.60;101539.16;4991011;28;20491;-77
2023/04/10 09:29:17;;;;;;;7.00;6.40;;;;;;;13.34;55.66;101532.31;4992648;28;20050;-75
2023/04/10 09:31:43;;;;;;;7.95;7.20;;;;;;;13.38;55.32;101519.69;5006338;28;20109;-77
2023/04/10 09:34:23;;;;;;;15.05;6.88;;;;;;;13.55;55.65;101511.31;4992685;28;20106;-75
2023/04/10 09:36:56;;;;;;;7.45;6.70;;;;;;;13.51;55.91;101519.59;4992645;28;20150;-75
2023/04/10 09:39:41;;;;;;;7.47;6.78;;;;;;;13.55;55.57;101506.03;4991841;28;20458;-74
2023/04/10 09:42:08;;;;;;;6.95;6.25;;;;;;;13.58;55.10;101499.66;4993067;28;20050;-76
2023/04/10 09:44:36;;;;;;;6.82;6.20;;;;;;;13.52;55.52;101490.41;5004345;28;20030;-74
2023/04/10 09:47:15;;;;;;;7.40;6.68;;;;;;;13.67;55.93;101489.25;4991702;28;20030;-75
2023/04/10 09:49:46;;;;;;;5.90;5.30;;;;;;;13.64;55.02;101484.22;4991852;28;20439;-75
2023/04/10 09:52:34;;;;;;;6.80;5.80;;;;;;;13.74;56.01;101479.88;4992917;28;20030;-77
2023/04/10 09:55:05;;;;;;;7.75;5.47;;;;;;;13.71;54.92;101485.41;4989701;28;20392;-77
2023/04/10 09:57:32;;;;;;;6.05;5.45;;;;;;;13.77;55.67;101478.81;4992434;28;20459;-77
2023/04/10 10:00:00;;;;;;;6.45;5.75;;;;;;;13.89;55.21;101483.13;4995882;28;20030;-75
2023/04/10 10:02:28;;;;;;;6.20;5.60;;;;;;;13.95;54.34;101481.81;4991662;28;20034;-77
2023/04/10 10:04:54;;;;;;;5.80;5.30;;;;;;;14.12;54.52;101473.41;4992744;28;20018;-77
2023/04/10 10:07:22;;;;;;;5.47;4.97;;;;;;;14.24;54.26;101469.78;5000945;28;20411;-77
2023/04/10 10:09:50;;;;;;;5.60;4.85;;;;;;;14.39;54.13;101480.94;4975218;28;20430;-77
2023/04/10 10:12:21;;;;;;;6.10;5.50;;;;;;;14.57;53.14;101473.38;4990714;28;20105;-77
2023/04/10 10:14:59;;;;;;;5.22;4.70;;;;;;;14.79;52.76;101462.72;4997831;28;20022;-76
2023/04/10 10:17:30;;;;;;;5.78;4.60;;;;;;;14.83;51.62;101442.97;4991799;28;20033;-76
2023/04/10 10:20:03;;;;;;;7.20;4.70;;;;;;;15.10;52.09;101449.59;4991950;28;20092;-76
2023/04/10 10:22:29;;;;;;;5.68;4.65;;;;;;;15.34;52.09;101436.94;4991403;28;20026;-76
2023/04/10 10:24:58;;;;;;;5.00;4.50;;;;;;;15.88;51.58;101441.16;5006653;28;20037;-76
2023/04/10 10:27:26;;;;;;;5.53;4.70;;;;;;;16.56;47.87;101444.88;4991304;28;20030;-76
2023/04/10 10:29:54;;;;;;;4.72;4.32;;;;;;;17.31;46.62;101433.56;5005805;28;20038;-76
2023/04/10 10:32:21;;;;;;;4.97;4.55;;;;;;;17.37;45.45;101422.34;4990437;28;20069;-76
2023/04/10 10:34:50;;;;;;;4.43;4.03;;;;;;;17.24;45.88;101427.16;4992257;28;20080;-76
2023/04/10 10:37:17;;;;;;;4.80;3.88;;;;;;;17.24;46.15;101421.84;4990306;28;20030;-76
2023/04/10 10:39:58;;;;;;;7.00;4.15;;;;;;;17.23;47.50;101410.34;4991849;28;20030;-76
2023/04/10 10:42:37;;;;;;;8.18;4.68;;;;;;;17.05;47.27;101411.19;4988002;28;20054;-76
2023/04/10 10:45:08;;;;;;;4.43;4.03;;;;;;;16.86;47.32;101412.91;4991679;28;20027;-76
2023/04/10 10:47:40;;;;;;;7.53;3.83;;;;;;;16.78;47.40;101404.78;4995219;28;20112;-76
2023/04/10 10:50:06;;;;;;;4.80;4.03;;;;;;;16.76;47.49;101396.09;4992884;28;20027;-76
2023/04/10 10:52:56;;;;;;;6.15;4.25;;;;;;;16.80;47.82;101392.19;4991428;28;20030;-76
2023/04/10 10:55:33;;;;;;;7.03;4.45;;;;;;;16.67;47.09;101388.97;4990147;28;20046;-76
2023/04/10 10:58:05;;;;;;;5.82;4.38;;;;;;;16.56;46.98;101378.47;4992160;28;20064;-76
2023/04/10 11:00:50;;;;;;;7.32;4.05;;;;;;;16.66;48.17;101379.31;4991677;28;20061;-76
2023/04/10 11:03:16;;;;;;;4.10;3.70;;;;;;;16.74;46.89;101374.16;4987065;28;20452;-76
2023/04/10 11:05:47;;;;;;;4.72;3.75;;;;;;;16.91;47.16;101368.13;4990804;28;20023;-76
2023/04/10 11:08:12;;;;;;;4.40;3.90;;;;;;;17.14;46.53;101373.13;4991225;28;20030;-76
2023/04/10 11:11:04;;;;;;;5.60;4.13;;;;;;;17.32;46.40;101379.41;4991380;28;20105;-75
2023/04/10 11:13:31;;;;;;;4.57;4.15;;;;;;;17.29;45.55;101363.72;4989775;28;20376;-75
2023/04/10 11:15:58;;;;;;;4.40;3.47;;;;;;;17.32;45.79;101359.94;4988389;28;20022;-76
2023/04/10 11:19:06;;;;;;;4.85;4.13;;;;;;;17.53;46.52;101356.06;4988356;28;20055;-75
2023/04/10 11:21:33;;;;;;;3.92;3.63;;;;;;;17.59;44.76;101349.31;4961817;28;20506;-75
2023/04/10 11:24:02;;;;;;;4.93;4.00;;;;;;;17.60;44.80;101336.84;4989705;28;20038;-75
2023/04/10 11:26:40;;;;;;;3.55;3.25;;;;;;;17.63;45.88;101326.78;5004894;28;20502;-75
2023/04/10 11:29:13;;;;;;;4.65;3.53;;;;;;;17.58;45.40;101328.19;4989079;28;20030;-75
2023/04/10 11:31:39;;;;;;;4.40;4.00;;;;;;;17.44;45.24;101319.69;4990177;28;20157;-75